This is the latest recevied weather packets stored in our database for station/object NW6UP. If no packets are shown the sender has not sent any weather packets the latest 10 day(s).
| Time | Temp. | Humidity | Pressure | Rain* | Wind** | Luminosity | Snow |
|---|---|---|---|---|---|---|---|
| 1777302263 | 13.89° C | 68% | 0 hPa | 0 mm | - | - | - |
| 1777301064 | 10.56° C | 78% | 1016.1 hPa | 0 mm | - | - | - |
| 1777299865 | 10.56° C | 79% | 1015.4 hPa | 0 mm | - | - | - |
| 1777298903 | 10.56° C | 78% | 1015.3 hPa | 0 mm | - | - | - |
| 1777298423 | 10.56° C | 78% | 0 hPa | 0 mm | - | - | - |
| 1777298065 | 10.56° C | 79% | 0 hPa | 0 mm | - | - | - |
| 1777275260 | 9.44° C | 76% | 0 hPa | 0 mm | - | - | - |
| 1777274060 | 10° C | 76% | 1015.1 hPa | 0 mm | - | - | - |
| 1777271662 | 10.56° C | 72% | 0 hPa | 0 mm | - | - | - |
| 1777270460 | 10.56° C | 70% | 1014.8 hPa | 0 mm | - | - | - |
| 1777269261 | 11.11° C | 69% | 1014.9 hPa | 0 mm | - | - | - |
| 1777268060 | 11.67° C | 66% | 0 hPa | 0 mm | - | - | - |
| 1777266861 | 11.67° C | 65% | 1014.7 hPa | 0 mm | - | - | - |
| 1777265660 | 11.67° C | 64% | 1014.4 hPa | 0 mm | - | - | - |
| 1777264460 | 11.67° C | 63% | 0 hPa | 0 mm | - | - | - |
| 1777262060 | 12.22° C | 62% | 0 hPa | 0 mm | - | - | - |
| 1777260860 | 12.78° C | 60% | 0 hPa | 0 mm | - | - | - |
| 1777258462 | 14.44° C | 55% | 0 hPa | 0 mm | - | - | - |
| 1777257261 | 15° C | 52% | 0 hPa | 0 mm | - | - | - |
| 1777256060 | 15.56° C | 50% | 0 hPa | 0 mm | - | - | - |
| 1777253661 | 16.67° C | 47% | 1013.2 hPa | 0 mm | - | - | - |
| 1777252464 | 17.22° C | 45% | 1012.8 hPa | 0 mm | - | - | - |
| 1777251261 | 17.78° C | 46% | 1012.7 hPa | 0 mm | - | - | - |
| 1777250060 | 17.78° C | 43% | 1012.6 hPa | 0 mm | - | - | - |
| 1777248860 | 18.89° C | 44% | 1012.5 hPa | 0 mm | - | - | - |
* Rain latest hour (hover to see other rain measurements)
** Current wind speed in m/s (hover to see current wind gust speed)